createdAt,value
2023-05-10T00:00:25.751Z,754.00
2023-05-10T00:01:25.778Z,750.00
2023-05-10T00:02:25.860Z,751.00
2023-05-10T00:03:25.930Z,752.00
2023-05-10T00:04:25.757Z,754.00
2023-05-10T00:05:25.759Z,752.00
2023-05-10T00:06:25.759Z,752.00
2023-05-10T00:07:25.764Z,751.00
2023-05-10T00:08:25.790Z,752.00
2023-05-10T00:09:25.762Z,753.00
2023-05-10T00:10:25.743Z,754.00
2023-05-10T00:11:25.743Z,754.00
2023-05-10T00:12:25.731Z,754.00
2023-05-10T00:13:25.852Z,752.00
2023-05-10T00:14:25.696Z,753.00
2023-05-10T00:15:25.705Z,754.00
2023-05-10T00:16:25.766Z,755.00
2023-05-10T00:17:25.701Z,754.00
2023-05-10T00:18:25.676Z,753.00
2023-05-10T00:19:25.671Z,752.00
2023-05-10T00:20:25.661Z,751.00
2023-05-10T00:21:25.640Z,752.00
2023-05-10T00:22:25.623Z,753.00
2023-05-10T00:23:25.618Z,753.00
2023-05-10T00:24:25.611Z,752.00
2023-05-10T00:25:25.623Z,752.00
2023-05-10T00:26:25.615Z,751.00
2023-05-10T00:27:25.600Z,749.00
2023-05-10T00:28:25.613Z,753.00
2023-05-10T00:29:25.624Z,753.00
2023-05-10T00:30:25.593Z,753.00
2023-05-10T00:31:25.616Z,754.00
2023-05-10T00:32:25.644Z,752.00
2023-05-10T00:33:25.633Z,749.00
2023-05-10T00:34:25.633Z,748.00
2023-05-10T00:35:25.625Z,747.00
2023-05-10T00:36:25.613Z,750.00
2023-05-10T00:37:25.621Z,751.00
2023-05-10T00:38:25.639Z,751.00
2023-05-10T00:39:25.746Z,756.00
2023-05-10T00:40:25.640Z,756.00
2023-05-10T00:41:25.644Z,756.00
2023-05-10T00:42:25.654Z,756.00
2023-05-10T00:43:25.665Z,756.00
2023-05-10T00:44:25.661Z,757.00
2023-05-10T00:45:25.679Z,757.00
2023-05-10T00:46:25.761Z,755.00
2023-05-10T00:47:25.746Z,757.00
2023-05-10T00:48:25.710Z,750.00
2023-05-10T00:49:25.712Z,752.00
2023-05-10T00:50:25.737Z,752.00
2023-05-10T00:51:25.765Z,752.00
2023-05-10T00:52:25.787Z,753.00
2023-05-10T00:53:25.790Z,751.00
2023-05-10T00:54:25.778Z,749.00
2023-05-10T00:55:25.771Z,745.00
2023-05-10T00:56:25.776Z,745.00
2023-05-10T00:57:25.778Z,745.00
2023-05-10T00:58:25.785Z,745.00
2023-05-10T00:59:25.790Z,746.00
2023-05-10T01:00:25.788Z,745.00
2023-05-10T01:01:25.802Z,744.00
2023-05-10T01:02:25.862Z,748.00
2023-05-10T01:03:25.878Z,744.00
2023-05-10T01:04:25.866Z,748.00
2023-05-10T01:05:25.913Z,750.00
2023-05-10T01:06:25.921Z,747.00
2023-05-10T01:07:25.899Z,744.00
2023-05-10T01:08:25.920Z,744.00
2023-05-10T01:09:25.924Z,746.00
2023-05-10T01:10:25.957Z,743.00
2023-05-10T01:11:25.966Z,742.00
2023-05-10T01:12:26.066Z,742.00
2023-05-10T01:13:26.167Z,741.00
2023-05-10T01:14:26.024Z,740.00
2023-05-10T01:15:26.023Z,738.00
2023-05-10T01:16:26.136Z,737.00
2023-05-10T01:17:26.146Z,736.00
2023-05-10T01:18:26.075Z,736.00
2023-05-10T01:19:26.082Z,735.00
2023-05-10T01:20:26.081Z,736.00
2023-05-10T01:21:26.081Z,735.00
2023-05-10T01:22:26.091Z,735.00
2023-05-10T01:23:26.146Z,738.00
2023-05-10T01:24:26.086Z,737.00
2023-05-10T01:25:26.078Z,739.00
2023-05-10T01:26:26.089Z,734.00
2023-05-10T01:27:26.089Z,735.00
2023-05-10T01:28:26.129Z,736.00
2023-05-10T01:29:26.118Z,737.00
2023-05-10T01:30:26.327Z,736.00
2023-05-10T01:31:26.132Z,739.00
2023-05-10T01:32:26.159Z,738.00
2023-05-10T01:33:26.117Z,739.00
2023-05-10T01:34:26.101Z,739.00
2023-05-10T01:35:26.130Z,741.00
2023-05-10T01:36:26.114Z,742.00
2023-05-10T01:37:26.119Z,739.00
2023-05-10T01:38:26.121Z,737.00
2023-05-10T01:39:26.116Z,738.00
2023-05-10T01:40:26.162Z,739.00
2023-05-10T01:41:26.197Z,740.00
2023-05-10T01:42:26.182Z,740.00
2023-05-10T01:43:26.184Z,741.00
2023-05-10T01:44:26.180Z,743.00
2023-05-10T01:45:26.191Z,745.00
2023-05-10T01:46:26.208Z,744.00
2023-05-10T01:47:26.239Z,738.00
2023-05-10T01:48:26.181Z,737.00
2023-05-10T01:49:26.189Z,738.00
2023-05-10T01:50:26.187Z,738.00
2023-05-10T01:51:26.227Z,740.00
2023-05-10T01:52:26.211Z,740.00
2023-05-10T01:53:26.226Z,740.00
2023-05-10T01:54:26.221Z,738.00
2023-05-10T01:55:26.228Z,741.00
2023-05-10T01:56:26.230Z,740.00
2023-05-10T01:57:26.257Z,741.00
2023-05-10T01:58:26.302Z,739.00
2023-05-10T01:59:26.233Z,737.00
2023-05-10T02:00:26.241Z,734.00
2023-05-10T02:01:26.231Z,734.00
2023-05-10T02:02:26.294Z,735.00
2023-05-10T02:03:26.289Z,736.00
2023-05-10T02:04:26.233Z,735.00
2023-05-10T02:05:26.219Z,735.00
2023-05-10T02:06:26.244Z,738.00
2023-05-10T02:07:26.220Z,735.00
2023-05-10T02:08:26.217Z,738.00
2023-05-10T02:09:26.224Z,738.00
2023-05-10T02:10:26.212Z,739.00
2023-05-10T02:11:26.213Z,740.00
2023-05-10T02:12:26.258Z,739.00
2023-05-10T02:13:26.382Z,739.00
2023-05-10T02:14:26.264Z,735.00
2023-05-10T02:15:26.246Z,733.00
2023-05-10T02:16:26.288Z,730.00
2023-05-10T02:17:26.326Z,729.00
2023-05-10T02:18:26.307Z,733.00
2023-05-10T02:19:26.308Z,737.00
2023-05-10T02:20:26.317Z,737.00
2023-05-10T02:21:26.324Z,739.00
2023-05-10T02:22:26.329Z,740.00
2023-05-10T02:23:26.307Z,741.00
2023-05-10T02:24:26.314Z,742.00
2023-05-10T02:25:26.304Z,744.00
2023-05-10T02:26:26.285Z,743.00
2023-05-10T02:27:26.315Z,739.00
2023-05-10T02:28:26.325Z,739.00
2023-05-10T02:29:26.314Z,740.00
2023-05-10T02:30:26.304Z,739.00
2023-05-10T02:31:26.332Z,736.00
2023-05-10T02:32:26.327Z,733.00
2023-05-10T02:33:26.312Z,734.00
2023-05-10T02:34:26.327Z,738.00
2023-05-10T02:35:26.328Z,739.00
2023-05-10T02:36:26.339Z,738.00
2023-05-10T02:37:26.347Z,739.00
2023-05-10T02:38:26.351Z,740.00
2023-05-10T02:39:26.356Z,741.00
2023-05-10T02:40:28.673Z,741.00
2023-05-10T02:41:26.489Z,740.00
2023-05-10T02:42:26.501Z,740.00
2023-05-10T02:43:26.521Z,737.00
2023-05-10T02:44:26.509Z,739.00
2023-05-10T02:45:26.499Z,738.00
2023-05-10T02:46:26.527Z,738.00
2023-05-10T02:47:26.502Z,738.00
2023-05-10T02:48:26.562Z,733.00
2023-05-10T02:49:26.520Z,733.00
2023-05-10T02:50:26.527Z,735.00
2023-05-10T02:51:26.535Z,737.00
2023-05-10T02:52:26.525Z,740.00
2023-05-10T02:53:26.520Z,738.00
2023-05-10T02:54:26.519Z,736.00
2023-05-10T02:55:26.540Z,736.00
2023-05-10T02:56:26.536Z,735.00
2023-05-10T02:57:26.569Z,737.00
2023-05-10T02:58:26.541Z,738.00
2023-05-10T02:59:26.539Z,738.00
2023-05-10T03:00:26.533Z,737.00
2023-05-10T03:01:26.577Z,738.00
2023-05-10T03:02:26.574Z,736.00
2023-05-10T03:03:26.552Z,734.00
2023-05-10T03:04:26.600Z,736.00
2023-05-10T03:05:26.570Z,739.00
2023-05-10T03:06:26.587Z,739.00
2023-05-10T03:07:26.610Z,742.00
2023-05-10T03:08:26.590Z,739.00
2023-05-10T03:09:26.634Z,741.00
2023-05-10T03:10:26.673Z,741.00
2023-05-10T03:11:26.635Z,741.00
2023-05-10T03:12:26.656Z,743.00
2023-05-10T03:13:26.906Z,744.00
2023-05-10T03:14:26.693Z,742.00
2023-05-10T03:15:26.688Z,744.00
2023-05-10T03:16:26.808Z,743.00
2023-05-10T03:17:26.773Z,740.00
2023-05-10T03:18:26.703Z,741.00
2023-05-10T03:19:26.807Z,738.00
2023-05-10T03:20:26.733Z,738.00
2023-05-10T03:21:26.727Z,741.00
2023-05-10T03:22:26.735Z,742.00
2023-05-10T03:23:26.735Z,743.00
2023-05-10T03:24:26.766Z,736.00
2023-05-10T03:25:26.748Z,736.00
2023-05-10T03:26:26.755Z,735.00
2023-05-10T03:27:26.760Z,735.00
2023-05-10T03:28:26.754Z,739.00
2023-05-10T03:29:26.769Z,737.00
2023-05-10T03:30:26.748Z,735.00
2023-05-10T03:31:26.769Z,732.00
2023-05-10T03:32:26.783Z,732.00
2023-05-10T03:33:27.332Z,733.00
2023-05-10T03:34:26.744Z,733.00
2023-05-10T03:35:26.740Z,735.00
2023-05-10T03:36:26.728Z,734.00
2023-05-10T03:37:26.736Z,741.00
2023-05-10T03:38:27.813Z,741.00
2023-05-10T03:39:26.714Z,743.00
2023-05-10T03:40:26.694Z,739.00
2023-05-10T03:41:26.686Z,736.00
2023-05-10T03:42:26.685Z,736.00
2023-05-10T03:43:26.663Z,733.00
2023-05-10T03:44:26.662Z,732.00
2023-05-10T03:45:26.646Z,732.00
2023-05-10T03:46:26.674Z,729.00
2023-05-10T03:47:26.698Z,724.00
2023-05-10T03:48:26.610Z,723.00
2023-05-10T03:49:26.606Z,724.00
2023-05-10T03:50:26.577Z,725.00
2023-05-10T03:51:26.590Z,724.00
2023-05-10T03:52:26.590Z,726.00
2023-05-10T03:53:26.532Z,725.00
2023-05-10T03:54:26.520Z,726.00
2023-05-10T03:55:26.507Z,726.00
2023-05-10T03:56:26.501Z,723.00
2023-05-10T03:57:26.514Z,727.00
2023-05-10T03:58:26.481Z,723.00
2023-05-10T03:59:26.460Z,723.00
2023-05-10T04:00:26.447Z,726.00
2023-05-10T04:01:26.459Z,730.00
2023-05-10T04:02:26.532Z,732.00
2023-05-10T04:03:26.479Z,732.00
2023-05-10T04:04:26.402Z,733.00
2023-05-10T04:05:26.390Z,730.00
2023-05-10T04:06:26.429Z,728.00
2023-05-10T04:07:26.357Z,728.00
2023-05-10T04:08:26.343Z,730.00
2023-05-10T04:09:26.336Z,729.00
2023-05-10T04:10:26.328Z,729.00
2023-05-10T04:11:26.306Z,730.00
2023-05-10T04:12:26.282Z,729.00
2023-05-10T04:13:26.299Z,728.00
2023-05-10T04:14:26.256Z,726.00
2023-05-10T04:15:26.228Z,723.00
2023-05-10T04:16:26.244Z,722.00
2023-05-10T04:17:26.231Z,723.00
2023-05-10T04:18:26.252Z,722.00
2023-05-10T04:19:26.185Z,721.00
2023-05-10T04:20:26.173Z,722.00
2023-05-10T04:21:26.173Z,724.00
2023-05-10T04:22:26.161Z,724.00
2023-05-10T04:23:26.123Z,723.00
2023-05-10T04:24:26.112Z,724.00
2023-05-10T04:25:26.099Z,721.00
2023-05-10T04:26:26.077Z,721.00
2023-05-10T04:27:26.068Z,722.00
2023-05-10T04:28:26.055Z,724.00
2023-05-10T04:29:26.052Z,724.00
2023-05-10T04:30:26.034Z,724.00
2023-05-10T04:31:26.071Z,724.00
2023-05-10T04:32:26.038Z,720.00
2023-05-10T04:33:25.995Z,725.00
2023-05-10T04:34:25.984Z,725.00
2023-05-10T04:35:25.970Z,723.00
2023-05-10T04:36:25.962Z,722.00
2023-05-10T04:37:25.938Z,723.00
2023-05-10T04:38:25.930Z,724.00
2023-05-10T04:39:25.921Z,723.00
2023-05-10T04:40:25.940Z,723.00
2023-05-10T04:41:25.899Z,723.00
2023-05-10T04:42:25.888Z,724.00
2023-05-10T04:43:25.873Z,722.00
2023-05-10T04:44:25.871Z,724.00
2023-05-10T04:45:25.855Z,725.00
2023-05-10T04:46:25.933Z,721.00
2023-05-10T04:47:25.894Z,720.00
2023-05-10T04:48:25.828Z,724.00
2023-05-10T04:49:25.815Z,722.00
2023-05-10T04:50:25.795Z,721.00
2023-05-10T04:51:25.784Z,720.00
2023-05-10T04:52:25.777Z,721.00
2023-05-10T04:53:25.794Z,722.00
2023-05-10T04:54:25.772Z,720.00
2023-05-10T04:55:25.766Z,717.00
2023-05-10T04:56:25.735Z,722.00
2023-05-10T04:57:25.754Z,720.00
2023-05-10T04:58:25.730Z,722.00
2023-05-10T04:59:25.718Z,723.00
2023-05-10T05:00:25.703Z,729.00
2023-05-10T05:01:25.746Z,733.00
2023-05-10T05:02:25.766Z,732.00
2023-05-10T05:03:25.846Z,728.00
2023-05-10T05:04:25.665Z,725.00
2023-05-10T05:05:25.674Z,725.00
2023-05-10T05:06:25.668Z,724.00
2023-05-10T05:07:25.665Z,723.00
2023-05-10T05:08:25.639Z,724.00
2023-05-10T05:09:25.622Z,723.00
2023-05-10T05:10:25.627Z,723.00
2023-05-10T05:11:25.614Z,719.00
2023-05-10T05:12:25.595Z,719.00
2023-05-10T05:13:25.709Z,716.00
2023-05-10T05:14:25.575Z,718.00
2023-05-10T05:15:25.566Z,718.00
2023-05-10T05:16:25.584Z,720.00
2023-05-10T05:17:25.581Z,719.00
2023-05-10T05:18:25.529Z,722.00
2023-05-10T05:19:25.523Z,732.00
2023-05-10T05:20:25.510Z,729.00
2023-05-10T05:21:25.494Z,726.00
2023-05-10T05:22:25.490Z,732.00
2023-05-10T05:23:25.477Z,732.00
2023-05-10T05:24:25.472Z,737.00
2023-05-10T05:25:25.465Z,744.00
2023-05-10T05:26:25.451Z,750.00
2023-05-10T05:27:25.437Z,839.00
2023-05-10T05:28:25.453Z,848.00
2023-05-10T05:29:25.420Z,851.00
2023-05-10T05:30:25.428Z,934.00
2023-05-10T05:31:25.388Z,881.00
2023-05-10T05:32:25.981Z,874.00
2023-05-10T05:33:25.377Z,894.00
2023-05-10T05:34:25.402Z,901.00
2023-05-10T05:35:25.353Z,905.00
2023-05-10T05:36:25.893Z,904.00
2023-05-10T05:37:25.312Z,900.00
2023-05-10T05:38:25.311Z,903.00
2023-05-10T05:39:25.303Z,901.00
2023-05-10T05:40:25.283Z,901.00
2023-05-10T05:41:25.276Z,902.00
2023-05-10T05:42:25.315Z,905.00
2023-05-10T05:43:25.280Z,909.00
2023-05-10T05:44:25.277Z,912.00
2023-05-10T05:45:25.254Z,913.00
2023-05-10T05:46:25.937Z,910.00
2023-05-10T05:47:25.283Z,910.00
2023-05-10T05:48:25.226Z,907.00
2023-05-10T05:49:25.222Z,904.00
2023-05-10T05:50:25.221Z,905.00
2023-05-10T05:51:25.214Z,906.00
2023-05-10T05:52:25.212Z,906.00
2023-05-10T05:53:25.224Z,905.00
2023-05-10T05:54:25.202Z,905.00
2023-05-10T05:55:25.184Z,906.00
2023-05-10T05:56:25.213Z,905.00
2023-05-10T05:57:25.172Z,907.00
2023-05-10T05:58:25.189Z,912.00
2023-05-10T05:59:25.169Z,914.00
2023-05-10T06:00:25.173Z,921.00
2023-05-10T06:01:25.147Z,924.00
2023-05-10T06:02:25.293Z,928.00
2023-05-10T06:03:25.286Z,926.00
2023-05-10T06:04:25.190Z,926.00
2023-05-10T06:05:25.114Z,928.00
2023-05-10T06:06:25.108Z,930.00
2023-05-10T06:07:25.104Z,934.00
2023-05-10T06:08:25.090Z,931.00
2023-05-10T06:09:25.078Z,929.00
2023-05-10T06:10:25.059Z,928.00
2023-05-10T06:11:25.899Z,929.00
2023-05-10T06:12:25.937Z,930.00
2023-05-10T06:13:25.115Z,932.00
2023-05-10T06:14:25.018Z,935.00
2023-05-10T06:15:25.053Z,936.00
2023-05-10T06:16:25.022Z,940.00
2023-05-10T06:17:24.998Z,938.00
2023-05-10T06:18:24.976Z,936.00
2023-05-10T06:19:24.974Z,935.00
2023-05-10T06:20:24.957Z,937.00
2023-05-10T06:21:24.944Z,934.00
2023-05-10T06:22:24.939Z,937.00
2023-05-10T06:23:24.920Z,937.00
2023-05-10T06:24:24.917Z,949.00
2023-05-10T06:25:24.899Z,961.00
2023-05-10T06:26:24.913Z,1024.00
2023-05-10T06:27:24.939Z,1063.00
2023-05-10T06:28:24.996Z,1101.00
2023-05-10T06:29:25.021Z,1109.00
2023-05-10T06:30:25.065Z,1112.00
2023-05-10T06:31:25.137Z,1156.00
2023-05-10T06:32:25.160Z,1175.00
2023-05-10T06:33:25.189Z,1184.00
2023-05-10T06:34:25.236Z,1205.00
2023-05-10T06:35:25.291Z,1231.00
2023-05-10T06:36:25.333Z,1247.00
2023-05-10T06:37:25.387Z,1270.00
2023-05-10T06:38:25.910Z,1300.00
2023-05-10T06:39:25.486Z,1332.00
2023-05-10T06:40:25.501Z,1363.00
2023-05-10T06:41:25.543Z,1379.00
2023-05-10T06:42:25.571Z,1397.00
2023-05-10T06:43:25.629Z,1411.00
2023-05-10T06:44:25.644Z,1422.00
2023-05-10T06:45:25.665Z,1431.00
2023-05-10T06:46:25.746Z,1462.00
2023-05-10T06:47:25.770Z,1493.00
2023-05-10T06:48:25.783Z,1514.00
2023-05-10T06:49:25.805Z,1523.00
2023-05-10T06:50:25.934Z,1541.00
2023-05-10T06:51:25.884Z,1561.00
2023-05-10T06:52:25.909Z,1582.00
2023-05-10T06:53:25.936Z,1586.00
2023-05-10T06:54:25.972Z,1591.00
2023-05-10T06:55:25.981Z,1606.00
2023-05-10T06:56:26.010Z,1613.00
2023-05-10T06:57:31.597Z,1633.00
2023-05-10T06:58:27.032Z,1646.00
2023-05-10T06:59:26.042Z,1672.00
2023-05-10T07:00:26.061Z,1689.00
2023-05-10T07:01:26.134Z,1711.00
2023-05-10T07:02:25.993Z,1727.00
2023-05-10T07:03:25.930Z,1747.00
2023-05-10T07:04:26.223Z,1753.00
2023-05-10T07:05:26.161Z,1784.00
2023-05-10T07:06:33.321Z,1802.00
2023-05-10T07:07:26.878Z,1822.00
2023-05-10T07:08:25.851Z,1838.00
2023-05-10T07:09:25.894Z,1858.00
2023-05-10T07:10:25.832Z,1879.00
2023-05-10T07:11:25.807Z,1898.00
2023-05-10T07:12:25.806Z,1938.00
2023-05-10T07:13:25.853Z,1969.00
2023-05-10T07:14:25.767Z,1978.00
2023-05-10T07:15:25.848Z,1979.00
2023-05-10T07:16:25.753Z,1995.00
2023-05-10T07:17:25.763Z,2005.00
2023-05-10T07:18:25.690Z,1989.00
2023-05-10T07:19:25.630Z,2034.00
2023-05-10T07:20:25.663Z,2282.00
2023-05-10T07:21:25.727Z,2003.00
2023-05-10T07:22:25.636Z,2004.00
2023-05-10T07:23:25.657Z,2011.00
2023-05-10T07:24:25.659Z,2015.00
2023-05-10T07:25:25.684Z,2015.00
2023-05-10T07:26:25.700Z,2010.00
2023-05-10T07:27:25.731Z,2015.00
2023-05-10T07:28:25.780Z,2014.00
2023-05-10T07:29:25.776Z,2013.00
2023-05-10T07:30:25.830Z,2010.00
2023-05-10T07:31:25.842Z,1998.00
2023-05-10T07:32:25.978Z,1998.00
2023-05-10T07:33:25.878Z,1999.00
2023-05-10T07:34:25.952Z,1990.00
2023-05-10T07:35:25.951Z,1981.00
2023-05-10T07:36:25.994Z,1966.00
2023-05-10T07:37:26.013Z,1968.00
2023-05-10T07:38:26.052Z,1966.00
2023-05-10T07:39:28.047Z,1970.00
2023-05-10T07:40:26.125Z,1972.00
2023-05-10T07:41:26.160Z,1972.00
2023-05-10T07:42:26.194Z,1976.00
2023-05-10T07:43:26.243Z,1971.00
2023-05-10T07:44:26.320Z,1971.00
2023-05-10T07:45:26.302Z,1973.00
2023-05-10T07:46:26.476Z,1971.00
2023-05-10T07:47:26.414Z,1964.00
2023-05-10T07:48:26.417Z,1955.00
2023-05-10T07:49:26.472Z,1943.00
2023-05-10T07:50:26.503Z,1941.00
2023-05-10T07:51:26.534Z,1942.00
2023-05-10T07:52:26.575Z,1940.00
2023-05-10T07:53:26.619Z,1943.00
2023-05-10T07:54:26.674Z,1943.00
2023-05-10T07:55:26.703Z,1945.00
2023-05-10T07:56:26.760Z,1946.00
2023-05-10T07:57:26.802Z,1949.00
2023-05-10T07:58:26.850Z,1946.00
2023-05-10T07:59:26.871Z,1949.00
2023-05-10T08:00:26.935Z,1940.00
2023-05-10T08:01:26.966Z,1927.00
2023-05-10T08:02:27.088Z,1911.00
2023-05-10T08:03:27.191Z,1908.00
2023-05-10T08:04:27.136Z,1916.00
2023-05-10T08:05:27.136Z,1917.00
2023-05-10T08:06:27.167Z,1922.00
2023-05-10T08:07:27.255Z,1923.00
2023-05-10T08:08:27.266Z,1921.00
2023-05-10T08:09:27.309Z,1929.00
2023-05-10T08:10:27.369Z,1936.00
2023-05-10T08:11:27.404Z,1939.00
2023-05-10T08:12:27.440Z,1935.00
2023-05-10T08:13:27.492Z,1383.00
2023-05-10T08:14:27.518Z,1189.00
2023-05-10T08:15:27.545Z,1043.00
2023-05-10T08:16:27.636Z,995.00
2023-05-10T08:17:27.554Z,889.00
2023-05-10T08:18:27.617Z,846.00
2023-05-10T08:19:27.641Z,787.00
2023-05-10T08:20:27.689Z,709.00
2023-05-10T08:21:27.729Z,641.00
2023-05-10T08:22:27.801Z,648.00
2023-05-10T08:23:27.844Z,626.00
2023-05-10T08:24:27.841Z,623.00
2023-05-10T08:25:27.850Z,612.00
2023-05-10T08:26:27.859Z,624.00
2023-05-10T08:27:27.876Z,732.00
2023-05-10T08:28:27.905Z,673.00
2023-05-10T08:29:28.516Z,692.00
2023-05-10T08:30:28.161Z,754.00
2023-05-10T08:31:28.216Z,747.00
2023-05-10T08:32:28.246Z,1064.00
2023-05-10T08:33:28.270Z,1199.00
2023-05-10T08:34:28.289Z,957.00
2023-05-10T08:35:28.295Z,875.00
2023-05-10T08:36:28.281Z,948.00
2023-05-10T08:37:28.265Z,976.00
2023-05-10T08:38:28.316Z,1040.00
2023-05-10T08:39:30.750Z,1030.00
2023-05-10T08:40:28.300Z,1070.00
2023-05-10T08:41:28.286Z,1098.00
2023-05-10T08:42:28.264Z,1120.00
2023-05-10T08:43:28.288Z,1193.00
2023-05-10T08:44:28.231Z,1208.00
2023-05-10T08:45:28.210Z,1295.00
2023-05-10T08:46:28.196Z,1284.00
2023-05-10T08:47:29.083Z,1334.00
2023-05-10T08:48:28.150Z,1355.00
2023-05-10T08:49:28.133Z,1399.00
2023-05-10T08:50:28.142Z,1465.00
2023-05-10T08:51:28.095Z,1460.00
2023-05-10T08:52:28.060Z,1484.00
2023-05-10T08:53:28.043Z,1516.00
2023-05-10T08:54:28.068Z,1531.00
2023-05-10T08:55:28.152Z,1524.00
2023-05-10T08:56:27.964Z,1553.00
2023-05-10T08:57:27.947Z,1663.00
2023-05-10T08:58:27.940Z,1650.00
2023-05-10T08:59:27.906Z,1695.00
2023-05-10T09:00:27.919Z,1832.00
2023-05-10T09:01:27.914Z,1729.00
2023-05-10T09:02:27.853Z,1764.00
2023-05-10T09:03:27.811Z,1766.00
2023-05-10T09:04:27.918Z,1785.00
2023-05-10T09:05:27.823Z,1813.00
2023-05-10T09:06:27.746Z,1987.00
2023-05-10T09:07:27.712Z,1910.00
2023-05-10T09:08:27.681Z,1903.00
2023-05-10T09:09:27.661Z,1980.00
2023-05-10T09:10:27.676Z,1995.00
2023-05-10T09:11:27.600Z,1986.00
2023-05-10T09:12:27.578Z,1964.00
2023-05-10T09:13:27.541Z,1988.00
2023-05-10T09:14:27.521Z,2051.00
2023-05-10T09:15:27.491Z,1956.00
2023-05-10T09:16:27.493Z,1992.00
2023-05-10T09:17:27.507Z,1776.00
2023-05-10T09:18:28.146Z,1784.00
2023-05-10T09:19:27.380Z,1634.00
2023-05-10T09:20:27.356Z,1478.00
2023-05-10T09:21:27.320Z,1756.00
2023-05-10T09:22:27.299Z,1547.00
2023-05-10T09:23:27.280Z,1774.00
2023-05-10T09:24:27.261Z,1871.00
2023-05-10T09:25:27.252Z,1764.00
2023-05-10T09:26:27.218Z,1968.00
2023-05-10T09:27:27.200Z,1891.00
2023-05-10T09:28:27.193Z,1889.00
2023-05-10T09:29:27.149Z,1824.00
2023-05-10T09:30:27.142Z,1887.00
2023-05-10T09:31:27.285Z,1898.00
2023-05-10T09:32:27.118Z,2074.00
2023-05-10T09:33:27.059Z,2040.00
2023-05-10T09:34:27.034Z,1988.00
2023-05-10T09:35:29.481Z,1999.00
2023-05-10T09:36:26.982Z,2027.00
2023-05-10T09:37:26.952Z,2108.00
2023-05-10T09:38:26.923Z,2125.00
2023-05-10T09:39:26.899Z,2132.00
2023-05-10T09:40:26.866Z,2139.00
2023-05-10T09:41:26.827Z,2171.00
2023-05-10T09:42:26.803Z,2220.00
2023-05-10T09:43:27.819Z,2246.00
2023-05-10T09:44:26.742Z,2253.00
2023-05-10T09:45:26.701Z,2312.00
2023-05-10T09:46:26.705Z,2321.00
2023-05-10T09:47:26.665Z,2482.00
2023-05-10T09:48:26.613Z,2384.00
2023-05-10T09:49:26.584Z,2362.00
2023-05-10T09:50:26.606Z,2370.00
2023-05-10T09:51:26.521Z,2386.00
2023-05-10T09:52:26.613Z,2413.00
2023-05-10T09:53:26.575Z,2673.00
2023-05-10T09:54:26.598Z,2530.00
2023-05-10T09:55:26.624Z,2547.00
2023-05-10T09:56:26.643Z,2568.00
2023-05-10T09:57:26.668Z,2583.00
2023-05-10T09:58:26.702Z,2584.00
2023-05-10T09:59:26.671Z,2611.00
2023-05-10T10:00:26.694Z,2632.00
2023-05-10T10:01:26.733Z,2654.00
2023-05-10T10:02:26.723Z,2682.00
2023-05-10T10:03:28.890Z,2852.00
2023-05-10T10:04:26.651Z,2776.00
2023-05-10T10:05:26.578Z,2766.00
2023-05-10T10:06:30.424Z,2768.00
2023-05-10T10:07:26.491Z,2779.00
2023-05-10T10:08:26.455Z,2826.00
2023-05-10T10:09:26.399Z,2930.00
2023-05-10T10:10:26.381Z,2803.00
2023-05-10T10:11:26.324Z,2804.00
2023-05-10T10:12:26.294Z,2811.00
2023-05-10T10:13:26.275Z,2819.00
2023-05-10T10:14:26.198Z,2816.00
2023-05-10T10:15:26.174Z,2807.00
2023-05-10T10:16:26.222Z,2807.00
2023-05-10T10:17:26.138Z,2820.00
2023-05-10T10:18:26.142Z,2836.00
2023-05-10T10:19:26.064Z,2821.00
2023-05-10T10:20:26.020Z,2819.00
2023-05-10T10:21:26.004Z,2834.00
2023-05-10T10:22:25.952Z,2811.00
2023-05-10T10:23:25.934Z,2809.00
2023-05-10T10:24:25.897Z,2812.00
2023-05-10T10:25:25.870Z,2810.00
2023-05-10T10:26:25.833Z,2809.00
2023-05-10T10:27:25.849Z,2811.00
2023-05-10T10:28:28.131Z,2808.00
2023-05-10T10:29:25.992Z,2812.00
2023-05-10T10:30:26.021Z,2809.00
2023-05-10T10:31:26.080Z,2809.00
2023-05-10T10:32:26.083Z,2808.00
2023-05-10T10:33:28.906Z,2806.00
2023-05-10T10:34:26.057Z,2806.00
2023-05-10T10:35:26.023Z,2801.00
2023-05-10T10:36:26.008Z,2802.00
2023-05-10T10:37:25.981Z,2797.00
2023-05-10T10:38:25.956Z,2788.00
2023-05-10T10:39:25.937Z,2788.00
2023-05-10T10:40:25.909Z,2793.00
2023-05-10T10:41:25.907Z,2794.00
2023-05-10T10:42:25.880Z,2789.00
2023-05-10T10:43:25.833Z,2783.00
2023-05-10T10:44:25.802Z,2787.00
2023-05-10T10:45:25.785Z,2784.00
2023-05-10T10:46:25.787Z,2764.00
2023-05-10T10:47:25.923Z,2763.00
2023-05-10T10:48:25.706Z,2764.00
2023-05-10T10:49:25.688Z,2763.00
2023-05-10T10:50:25.662Z,2765.00
2023-05-10T10:51:25.619Z,2765.00
2023-05-10T10:52:25.585Z,2767.00
2023-05-10T10:53:25.596Z,2763.00
2023-05-10T10:54:25.540Z,2728.00
2023-05-10T10:55:25.518Z,2647.00
2023-05-10T10:56:25.472Z,2674.00
2023-05-10T10:57:25.488Z,2691.00
2023-05-10T10:58:25.399Z,2697.00
2023-05-10T10:59:25.383Z,2706.00
2023-05-10T11:00:25.342Z,2736.00
2023-05-10T11:01:25.337Z,2744.00
2023-05-10T11:02:25.300Z,2747.00
2023-05-10T11:03:25.243Z,2745.00
2023-05-10T11:04:25.243Z,2752.00
2023-05-10T11:05:25.186Z,2321.00
2023-05-10T11:06:25.182Z,2366.00
2023-05-10T11:07:25.140Z,2272.00
2023-05-10T11:08:25.116Z,2089.00
2023-05-10T11:09:25.080Z,1731.00
2023-05-10T11:10:25.079Z,2159.00
2023-05-10T11:11:25.033Z,1928.00
2023-05-10T11:12:25.001Z,1768.00
2023-05-10T11:13:24.987Z,1708.00
2023-05-10T11:14:24.955Z,1619.00
2023-05-10T11:15:24.932Z,1585.00
2023-05-10T11:16:25.129Z,1571.00
2023-05-10T11:17:24.928Z,1442.00
2023-05-10T11:18:24.875Z,1463.00
2023-05-10T11:19:24.828Z,1458.00
2023-05-10T11:20:24.809Z,1449.00
2023-05-10T11:21:24.796Z,1459.00
2023-05-10T11:22:24.763Z,1485.00
2023-05-10T11:23:24.755Z,1523.00
2023-05-10T11:24:24.722Z,1377.00
2023-05-10T11:25:24.702Z,1361.00
2023-05-10T11:26:24.660Z,1350.00
2023-05-10T11:27:24.630Z,1342.00
2023-05-10T11:28:24.606Z,1280.00
2023-05-10T11:29:24.577Z,1259.00
2023-05-10T11:30:24.556Z,1227.00
2023-05-10T11:31:24.609Z,1200.00
2023-05-10T11:32:24.562Z,1068.00
2023-05-10T11:33:24.497Z,1060.00
2023-05-10T11:34:24.478Z,1059.00
2023-05-10T11:35:24.465Z,1027.00
2023-05-10T11:36:24.427Z,1007.00
2023-05-10T11:37:24.401Z,964.00
2023-05-10T11:38:24.408Z,956.00
2023-05-10T11:39:24.443Z,920.00
2023-05-10T11:40:24.342Z,935.00
2023-05-10T11:41:24.318Z,898.00
2023-05-10T11:42:24.296Z,915.00
2023-05-10T11:43:24.288Z,901.00
2023-05-10T11:44:24.292Z,891.00
2023-05-10T11:45:24.308Z,899.00
2023-05-10T11:46:24.378Z,872.00
2023-05-10T11:47:24.517Z,890.00
2023-05-10T11:48:24.465Z,896.00
2023-05-10T11:49:24.505Z,917.00
2023-05-10T11:50:24.553Z,907.00
2023-05-10T11:51:24.597Z,899.00
2023-05-10T11:52:24.674Z,900.00
2023-05-10T11:53:25.894Z,901.00
2023-05-10T11:54:24.789Z,907.00
2023-05-10T11:55:24.749Z,915.00
2023-05-10T11:56:24.889Z,910.00
2023-05-10T11:57:24.826Z,969.00
2023-05-10T11:58:24.868Z,945.00
2023-05-10T11:59:24.909Z,935.00
2023-05-10T12:00:24.933Z,932.00
2023-05-10T12:01:24.984Z,916.00
2023-05-10T12:02:25.052Z,1088.00
2023-05-10T12:03:25.150Z,994.00
2023-05-10T12:04:25.068Z,1013.00
2023-05-10T12:05:25.062Z,977.00
2023-05-10T12:06:25.098Z,1041.00
2023-05-10T12:07:25.097Z,1016.00
2023-05-10T12:08:25.064Z,1079.00
2023-05-10T12:09:39.759Z,1034.00
2023-05-10T12:10:26.035Z,1052.00
2023-05-10T12:11:25.001Z,1051.00
2023-05-10T12:12:24.954Z,1118.00
2023-05-10T12:13:24.938Z,1106.00
2023-05-10T12:14:24.907Z,1079.00
2023-05-10T12:15:24.884Z,1079.00
2023-05-10T12:16:25.305Z,1093.00
2023-05-10T12:17:24.833Z,1110.00
2023-05-10T12:18:24.827Z,1133.00